Terminal Aerodrome Forecast
Issued by NWS Central Illinois

Home | Current Version | Previous Version | Text Only | Print | Product List | Glossary On
Versions: 1 2 3 4 5 6 7 8 9 10 11 12 13 14 15 16 17
838
FTUS43 KILX 041724
TAFPIA
TAF
KPIA 041724Z 0418/0518 14004KT 1/2SM SN FG OVC003
     FM042200 20004KT P6SM VCSH OVC003
     FM050600 26004KT 4SM BR BKN008
     FM051400 18005KT P6SM BKN020=

USA.gov is the U.S. government's official web portal to all federal, state and local government web resources and services.